sensor_id;sensor_type;location;lat;lon;timestamp;P1;durP1;ratioP1;P2;durP2;ratioP2
9773;SDS011;4926;42.670;23.316;2023-06-26T00:01:11;22.75;;;19.80;;
9773;SDS011;4926;42.670;23.316;2023-06-26T00:03:40;21.73;;;19.52;;
9773;SDS011;4926;42.670;23.316;2023-06-26T00:06:09;24.73;;;20.42;;
9773;SDS011;4926;42.670;23.316;2023-06-26T00:08:39;23.27;;;19.98;;
9773;SDS011;4926;42.670;23.316;2023-06-26T00:11:07;20.33;;;18.30;;
9773;SDS011;4926;42.670;23.316;2023-06-26T00:13:36;21.00;;;18.77;;
9773;SDS011;4926;42.670;23.316;2023-06-26T00:16:03;21.65;;;18.25;;
9773;SDS011;4926;42.670;23.316;2023-06-26T00:18:30;21.08;;;18.02;;
9773;SDS011;4926;42.670;23.316;2023-06-26T00:20:58;19.77;;;17.17;;
9773;SDS011;4926;42.670;23.316;2023-06-26T00:23:26;19.30;;;17.33;;
9773;SDS011;4926;42.670;23.316;2023-06-26T00:25:55;19.63;;;17.10;;
9773;SDS011;4926;42.670;23.316;2023-06-26T00:28:27;19.13;;;16.88;;
9773;SDS011;4926;42.670;23.316;2023-06-26T00:30:54;18.00;;;16.25;;
9773;SDS011;4926;42.670;23.316;2023-06-26T00:33:20;22.50;;;17.65;;
9773;SDS011;4926;42.670;23.316;2023-06-26T00:35:47;17.17;;;15.38;;
9773;SDS011;4926;42.670;23.316;2023-06-26T00:38:17;21.75;;;16.67;;
9773;SDS011;4926;42.670;23.316;2023-06-26T00:40:43;18.58;;;15.88;;
9773;SDS011;4926;42.670;23.316;2023-06-26T00:43:10;19.58;;;15.23;;
9773;SDS011;4926;42.670;23.316;2023-06-26T00:45:37;17.00;;;15.32;;
9773;SDS011;4926;42.670;23.316;2023-06-26T00:48:04;16.42;;;14.75;;
9773;SDS011;4926;42.670;23.316;2023-06-26T00:50:33;18.85;;;15.48;;
9773;SDS011;4926;42.670;23.316;2023-06-26T00:53:03;16.75;;;15.05;;
9773;SDS011;4926;42.670;23.316;2023-06-26T00:55:31;18.20;;;15.48;;
9773;SDS011;4926;42.670;23.316;2023-06-26T00:57:58;17.52;;;14.65;;
9773;SDS011;4926;42.670;23.316;2023-06-26T01:00:25;16.05;;;14.00;;
9773;SDS011;4926;42.670;23.316;2023-06-26T01:02:52;16.55;;;14.57;;
9773;SDS011;4926;42.670;23.316;2023-06-26T01:05:21;17.33;;;14.52;;
9773;SDS011;4926;42.670;23.316;2023-06-26T01:07:50;14.85;;;13.30;;
9773;SDS011;4926;42.670;23.316;2023-06-26T01:10:31;16.67;;;13.75;;
9773;SDS011;4926;42.670;23.316;2023-06-26T01:13:00;14.52;;;13.10;;
9773;SDS011;4926;42.670;23.316;2023-06-26T01:15:27;16.10;;;14.30;;
9773;SDS011;4926;42.670;23.316;2023-06-26T01:18:00;16.23;;;14.02;;
9773;SDS011;4926;42.670;23.316;2023-06-26T01:20:29;20.15;;;13.95;;
9773;SDS011;4926;42.670;23.316;2023-06-26T01:22:59;15.82;;;14.05;;
9773;SDS011;4926;42.670;23.316;2023-06-26T01:25:35;15.30;;;13.70;;
9773;SDS011;4926;42.670;23.316;2023-06-26T01:28:13;14.75;;;13.18;;
9773;SDS011;4926;42.670;23.316;2023-06-26T01:30:47;17.00;;;13.45;;
9773;SDS011;4926;42.670;23.316;2023-06-26T01:33:21;15.73;;;13.48;;
9773;SDS011;4926;42.670;23.316;2023-06-26T01:35:48;15.65;;;14.00;;
9773;SDS011;4926;42.670;23.316;2023-06-26T01:38:16;15.30;;;13.63;;
9773;SDS011;4926;42.670;23.316;2023-06-26T01:40:45;16.90;;;13.43;;
9773;SDS011;4926;42.670;23.316;2023-06-26T01:43:16;15.85;;;14.27;;
9773;SDS011;4926;42.670;23.316;2023-06-26T01:45:50;15.50;;;14.00;;
9773;SDS011;4926;42.670;23.316;2023-06-26T01:48:19;15.05;;;13.52;;
9773;SDS011;4926;42.670;23.316;2023-06-26T01:50:52;15.25;;;13.55;;
9773;SDS011;4926;42.670;23.316;2023-06-26T01:53:21;18.77;;;16.00;;
9773;SDS011;4926;42.670;23.316;2023-06-26T01:55:53;16.50;;;14.65;;
9773;SDS011;4926;42.670;23.316;2023-06-26T01:58:27;14.73;;;13.25;;
9773;SDS011;4926;42.670;23.316;2023-06-26T02:01:01;15.30;;;13.80;;
9773;SDS011;4926;42.670;23.316;2023-06-26T02:03:31;16.40;;;14.70;;
9773;SDS011;4926;42.670;23.316;2023-06-26T02:06:02;15.85;;;14.02;;
9773;SDS011;4926;42.670;23.316;2023-06-26T02:08:29;16.38;;;13.90;;
9773;SDS011;4926;42.670;23.316;2023-06-26T02:10:56;15.77;;;14.10;;
9773;SDS011;4926;42.670;23.316;2023-06-26T02:13:23;15.68;;;14.18;;
9773;SDS011;4926;42.670;23.316;2023-06-26T02:15:58;18.63;;;16.05;;
9773;SDS011;4926;42.670;23.316;2023-06-26T02:18:25;17.50;;;15.82;;
9773;SDS011;4926;42.670;23.316;2023-06-26T02:20:55;17.00;;;15.30;;
9773;SDS011;4926;42.670;23.316;2023-06-26T02:23:22;17.77;;;15.95;;
9773;SDS011;4926;42.670;23.316;2023-06-26T02:25:49;17.02;;;15.32;;
9773;SDS011;4926;42.670;23.316;2023-06-26T02:28:15;18.35;;;16.45;;
9773;SDS011;4926;42.670;23.316;2023-06-26T02:30:44;18.35;;;16.45;;
9773;SDS011;4926;42.670;23.316;2023-06-26T02:33:12;19.25;;;15.75;;
9773;SDS011;4926;42.670;23.316;2023-06-26T02:35:39;18.35;;;16.42;;
9773;SDS011;4926;42.670;23.316;2023-06-26T02:38:07;19.58;;;17.60;;
9773;SDS011;4926;42.670;23.316;2023-06-26T02:40:34;19.67;;;17.27;;
9773;SDS011;4926;42.670;23.316;2023-06-26T02:43:01;19.83;;;17.83;;
9773;SDS011;4926;42.670;23.316;2023-06-26T02:45:28;19.85;;;17.85;;
9773;SDS011;4926;42.670;23.316;2023-06-26T02:47:57;19.38;;;17.33;;
9773;SDS011;4926;42.670;23.316;2023-06-26T02:50:26;19.20;;;17.30;;
9773;SDS011;4926;42.670;23.316;2023-06-26T02:52:55;19.73;;;17.77;;
9773;SDS011;4926;42.670;23.316;2023-06-26T02:55:22;20.38;;;18.27;;
9773;SDS011;4926;42.670;23.316;2023-06-26T02:57:49;21.17;;;19.10;;
9773;SDS011;4926;42.670;23.316;2023-06-26T03:00:16;20.80;;;18.05;;
9773;SDS011;4926;42.670;23.316;2023-06-26T03:02:43;20.88;;;18.80;;
9773;SDS011;4926;42.670;23.316;2023-06-26T03:05:09;20.75;;;18.73;;
9773;SDS011;4926;42.670;23.316;2023-06-26T03:07:39;21.30;;;19.20;;
9773;SDS011;4926;42.670;23.316;2023-06-26T03:10:06;21.40;;;19.27;;
9773;SDS011;4926;42.670;23.316;2023-06-26T03:12:34;21.35;;;19.20;;
9773;SDS011;4926;42.670;23.316;2023-06-26T03:15:00;21.58;;;19.25;;
9773;SDS011;4926;42.670;23.316;2023-06-26T03:17:29;21.00;;;18.98;;
9773;SDS011;4926;42.670;23.316;2023-06-26T03:20:00;21.05;;;18.98;;
9773;SDS011;4926;42.670;23.316;2023-06-26T03:22:31;21.45;;;19.40;;
9773;SDS011;4926;42.670;23.316;2023-06-26T03:24:59;21.42;;;19.17;;
9773;SDS011;4926;42.670;23.316;2023-06-26T03:27:27;21.60;;;19.40;;
9773;SDS011;4926;42.670;23.316;2023-06-26T03:29:54;22.60;;;20.40;;
9773;SDS011;4926;42.670;23.316;2023-06-26T03:32:21;22.10;;;20.00;;
9773;SDS011;4926;42.670;23.316;2023-06-26T03:34:47;22.42;;;20.10;;
9773;SDS011;4926;42.670;23.316;2023-06-26T03:37:14;22.48;;;20.25;;
9773;SDS011;4926;42.670;23.316;2023-06-26T03:39:41;22.92;;;20.63;;
9773;SDS011;4926;42.670;23.316;2023-06-26T03:42:09;21.92;;;19.83;;
9773;SDS011;4926;42.670;23.316;2023-06-26T03:44:40;22.83;;;20.42;;
9773;SDS011;4926;42.670;23.316;2023-06-26T03:47:07;21.60;;;19.40;;
9773;SDS011;4926;42.670;23.316;2023-06-26T03:49:34;22.85;;;20.52;;
9773;SDS011;4926;42.670;23.316;2023-06-26T03:52:00;22.95;;;20.63;;
9773;SDS011;4926;42.670;23.316;2023-06-26T03:54:27;22.42;;;20.20;;
9773;SDS011;4926;42.670;23.316;2023-06-26T03:56:54;24.02;;;21.33;;
9773;SDS011;4926;42.670;23.316;2023-06-26T03:59:22;21.58;;;19.38;;
9773;SDS011;4926;42.670;23.316;2023-06-26T04:01:49;22.63;;;20.42;;
9773;SDS011;4926;42.670;23.316;2023-06-26T04:04:15;21.50;;;19.38;;
9773;SDS011;4926;42.670;23.316;2023-06-26T04:06:42;21.25;;;19.08;;
9773;SDS011;4926;42.670;23.316;2023-06-26T04:09:14;21.10;;;19.10;;
9773;SDS011;4926;42.670;23.316;2023-06-26T04:11:41;20.27;;;18.33;;
9773;SDS011;4926;42.670;23.316;2023-06-26T04:14:08;21.00;;;18.80;;
9773;SDS011;4926;42.670;23.316;2023-06-26T04:16:36;20.70;;;18.52;;
9773;SDS011;4926;42.670;23.316;2023-06-26T04:19:03;20.73;;;18.63;;
9773;SDS011;4926;42.670;23.316;2023-06-26T04:21:30;21.38;;;18.45;;
9773;SDS011;4926;42.670;23.316;2023-06-26T04:23:57;19.55;;;17.55;;
9773;SDS011;4926;42.670;23.316;2023-06-26T04:26:24;21.27;;;18.25;;
9773;SDS011;4926;42.670;23.316;2023-06-26T04:28:52;19.88;;;17.70;;
9773;SDS011;4926;42.670;23.316;2023-06-26T04:31:19;19.63;;;17.73;;
9773;SDS011;4926;42.670;23.316;2023-06-26T04:33:48;19.08;;;17.20;;
9773;SDS011;4926;42.670;23.316;2023-06-26T04:36:16;18.13;;;16.42;;
9773;SDS011;4926;42.670;23.316;2023-06-26T04:38:44;19.60;;;16.80;;
9773;SDS011;4926;42.670;23.316;2023-06-26T04:41:12;18.73;;;16.90;;
9773;SDS011;4926;42.670;23.316;2023-06-26T04:43:39;19.88;;;17.73;;
9773;SDS011;4926;42.670;23.316;2023-06-26T04:46:06;19.90;;;17.92;;
9773;SDS011;4926;42.670;23.316;2023-06-26T04:48:33;18.77;;;16.98;;
9773;SDS011;4926;42.670;23.316;2023-06-26T04:51:01;18.50;;;16.80;;
9773;SDS011;4926;42.670;23.316;2023-06-26T04:53:29;18.98;;;17.08;;
9773;SDS011;4926;42.670;23.316;2023-06-26T04:55:56;18.98;;;17.02;;
9773;SDS011;4926;42.670;23.316;2023-06-26T04:58:23;19.05;;;17.27;;
9773;SDS011;4926;42.670;23.316;2023-06-26T05:00:51;20.08;;;18.17;;
9773;SDS011;4926;42.670;23.316;2023-06-26T05:03:18;20.23;;;18.17;;
9773;SDS011;4926;42.670;23.316;2023-06-26T05:05:45;20.00;;;17.90;;
9773;SDS011;4926;42.670;23.316;2023-06-26T05:08:17;21.80;;;18.25;;
9773;SDS011;4926;42.670;23.316;2023-06-26T05:10:47;20.23;;;18.17;;
9773;SDS011;4926;42.670;23.316;2023-06-26T05:13:18;20.02;;;18.10;;
9773;SDS011;4926;42.670;23.316;2023-06-26T05:15:45;19.08;;;17.17;;
9773;SDS011;4926;42.670;23.316;2023-06-26T05:18:12;18.73;;;16.90;;
9773;SDS011;4926;42.670;23.316;2023-06-26T05:20:40;18.92;;;17.13;;
9773;SDS011;4926;42.670;23.316;2023-06-26T05:23:07;18.55;;;16.77;;
9773;SDS011;4926;42.670;23.316;2023-06-26T05:25:38;18.73;;;16.92;;
9773;SDS011;4926;42.670;23.316;2023-06-26T05:28:08;19.15;;;17.27;;
9773;SDS011;4926;42.670;23.316;2023-06-26T05:30:37;18.95;;;17.08;;
9773;SDS011;4926;42.670;23.316;2023-06-26T05:33:04;18.15;;;16.35;;
9773;SDS011;4926;42.670;23.316;2023-06-26T05:35:33;19.17;;;17.17;;
9773;SDS011;4926;42.670;23.316;2023-06-26T05:38:02;17.48;;;15.75;;
9773;SDS011;4926;42.670;23.316;2023-06-26T05:40:29;17.13;;;15.52;;
9773;SDS011;4926;42.670;23.316;2023-06-26T05:43:01;17.45;;;15.77;;
9773;SDS011;4926;42.670;23.316;2023-06-26T05:45:28;17.73;;;16.10;;
9773;SDS011;4926;42.670;23.316;2023-06-26T05:47:55;18.00;;;16.30;;
9773;SDS011;4926;42.670;23.316;2023-06-26T05:50:22;17.73;;;15.77;;
9773;SDS011;4926;42.670;23.316;2023-06-26T05:52:50;19.17;;;17.13;;
9773;SDS011;4926;42.670;23.316;2023-06-26T05:55:17;17.20;;;15.63;;
9773;SDS011;4926;42.670;23.316;2023-06-26T05:57:45;21.00;;;16.42;;
9773;SDS011;4926;42.670;23.316;2023-06-26T06:00:14;23.05;;;15.93;;
9773;SDS011;4926;42.670;23.316;2023-06-26T06:02:41;16.73;;;15.02;;
9773;SDS011;4926;42.670;23.316;2023-06-26T06:05:09;16.33;;;14.77;;
9773;SDS011;4926;42.670;23.316;2023-06-26T06:07:36;17.80;;;15.15;;
9773;SDS011;4926;42.670;23.316;2023-06-26T06:10:03;16.02;;;14.40;;
9773;SDS011;4926;42.670;23.316;2023-06-26T06:12:33;14.57;;;13.27;;
9773;SDS011;4926;42.670;23.316;2023-06-26T06:15:00;15.00;;;13.50;;
9773;SDS011;4926;42.670;23.316;2023-06-26T06:17:28;14.85;;;13.40;;
9773;SDS011;4926;42.670;23.316;2023-06-26T06:19:55;14.80;;;13.45;;
9773;SDS011;4926;42.670;23.316;2023-06-26T06:22:22;15.30;;;13.75;;
9773;SDS011;4926;42.670;23.316;2023-06-26T06:24:50;15.70;;;13.45;;
9773;SDS011;4926;42.670;23.316;2023-06-26T06:27:18;15.73;;;14.18;;
9773;SDS011;4926;42.670;23.316;2023-06-26T06:29:44;14.15;;;12.88;;
9773;SDS011;4926;42.670;23.316;2023-06-26T06:32:13;14.02;;;12.73;;
9773;SDS011;4926;42.670;23.316;2023-06-26T06:34:41;13.85;;;12.43;;
9773;SDS011;4926;42.670;23.316;2023-06-26T06:37:08;13.45;;;12.15;;
9773;SDS011;4926;42.670;23.316;2023-06-26T06:39:35;14.48;;;12.95;;
9773;SDS011;4926;42.670;23.316;2023-06-26T06:42:06;14.38;;;12.98;;
9773;SDS011;4926;42.670;23.316;2023-06-26T06:44:34;14.40;;;12.18;;
9773;SDS011;4926;42.670;23.316;2023-06-26T06:47:04;14.38;;;12.93;;
9773;SDS011;4926;42.670;23.316;2023-06-26T06:49:31;14.65;;;13.32;;
9773;SDS011;4926;42.670;23.316;2023-06-26T06:52:00;14.77;;;13.27;;
9773;SDS011;4926;42.670;23.316;2023-06-26T06:54:27;13.95;;;12.48;;
9773;SDS011;4926;42.670;23.316;2023-06-26T06:56:53;12.25;;;11.13;;
9773;SDS011;4926;42.670;23.316;2023-06-26T06:59:23;11.63;;;10.63;;
9773;SDS011;4926;42.670;23.316;2023-06-26T07:01:49;12.02;;;10.80;;
9773;SDS011;4926;42.670;23.316;2023-06-26T07:04:25;13.48;;;10.70;;
9773;SDS011;4926;42.670;23.316;2023-06-26T07:09:45;11.40;;;10.50;;
9773;SDS011;4926;42.670;23.316;2023-06-26T07:12:12;11.35;;;10.23;;
9773;SDS011;4926;42.670;23.316;2023-06-26T07:14:39;14.52;;;10.35;;
9773;SDS011;4926;42.670;23.316;2023-06-26T07:17:05;10.02;;;8.98;;
9773;SDS011;4926;42.670;23.316;2023-06-26T07:19:33;12.18;;;9.82;;
9773;SDS011;4926;42.670;23.316;2023-06-26T07:22:00;10.70;;;9.77;;
9773;SDS011;4926;42.670;23.316;2023-06-26T07:24:28;8.80;;;7.90;;
9773;SDS011;4926;42.670;23.316;2023-06-26T07:26:55;10.15;;;9.15;;
9773;SDS011;4926;42.670;23.316;2023-06-26T07:29:24;10.15;;;9.13;;
9773;SDS011;4926;42.670;23.316;2023-06-26T07:31:53;8.07;;;7.22;;
9773;SDS011;4926;42.670;23.316;2023-06-26T07:34:19;7.80;;;6.68;;
9773;SDS011;4926;42.670;23.316;2023-06-26T07:36:46;9.13;;;7.20;;
9773;SDS011;4926;42.670;23.316;2023-06-26T07:39:13;8.15;;;7.35;;
9773;SDS011;4926;42.670;23.316;2023-06-26T07:41:43;8.00;;;6.93;;
9773;SDS011;4926;42.670;23.316;2023-06-26T07:44:13;7.80;;;7.00;;
9773;SDS011;4926;42.670;23.316;2023-06-26T07:46:40;8.80;;;7.90;;
9773;SDS011;4926;42.670;23.316;2023-06-26T07:49:07;7.63;;;6.93;;
9773;SDS011;4926;42.670;23.316;2023-06-26T07:51:34;9.25;;;7.40;;
9773;SDS011;4926;42.670;23.316;2023-06-26T07:54:00;10.82;;;7.63;;
9773;SDS011;4926;42.670;23.316;2023-06-26T07:56:30;8.63;;;7.70;;
9773;SDS011;4926;42.670;23.316;2023-06-26T07:58:58;9.07;;;8.00;;
9773;SDS011;4926;42.670;23.316;2023-06-26T08:01:26;8.43;;;7.68;;
9773;SDS011;4926;42.670;23.316;2023-06-26T08:03:53;7.20;;;6.53;;
9773;SDS011;4926;42.670;23.316;2023-06-26T08:06:19;8.50;;;7.30;;
9773;SDS011;4926;42.670;23.316;2023-06-26T08:08:46;7.90;;;7.20;;
9773;SDS011;4926;42.670;23.316;2023-06-26T08:11:13;7.25;;;6.55;;
9773;SDS011;4926;42.670;23.316;2023-06-26T08:13:40;7.22;;;6.30;;
9773;SDS011;4926;42.670;23.316;2023-06-26T08:16:09;6.35;;;5.75;;
9773;SDS011;4926;42.670;23.316;2023-06-26T08:18:37;6.22;;;5.63;;
9773;SDS011;4926;42.670;23.316;2023-06-26T08:21:04;10.05;;;6.97;;
9773;SDS011;4926;42.670;23.316;2023-06-26T08:23:31;8.25;;;7.45;;
9773;SDS011;4926;42.670;23.316;2023-06-26T08:25:58;7.82;;;7.05;;
9773;SDS011;4926;42.670;23.316;2023-06-26T08:28:35;9.00;;;7.00;;
9773;SDS011;4926;42.670;23.316;2023-06-26T08:31:04;7.85;;;7.05;;
9773;SDS011;4926;42.670;23.316;2023-06-26T08:33:32;7.57;;;6.90;;
9773;SDS011;4926;42.670;23.316;2023-06-26T08:35:59;8.38;;;7.50;;
9773;SDS011;4926;42.670;23.316;2023-06-26T08:38:26;9.85;;;8.27;;
9773;SDS011;4926;42.670;23.316;2023-06-26T08:40:56;9.60;;;7.90;;
9773;SDS011;4926;42.670;23.316;2023-06-26T08:43:23;7.25;;;6.65;;
9773;SDS011;4926;42.670;23.316;2023-06-26T08:45:49;9.35;;;6.07;;
9773;SDS011;4926;42.670;23.316;2023-06-26T08:48:17;7.25;;;6.53;;
9773;SDS011;4926;42.670;23.316;2023-06-26T08:50:46;9.07;;;6.90;;
9773;SDS011;4926;42.670;23.316;2023-06-26T08:53:17;9.30;;;7.15;;
9773;SDS011;4926;42.670;23.316;2023-06-26T08:55:51;9.43;;;6.28;;
9773;SDS011;4926;42.670;23.316;2023-06-26T08:58:19;7.10;;;6.38;;
9773;SDS011;4926;42.670;23.316;2023-06-26T09:00:46;8.30;;;6.32;;
9773;SDS011;4926;42.670;23.316;2023-06-26T09:03:14;6.88;;;6.20;;
9773;SDS011;4926;42.670;23.316;2023-06-26T09:05:41;7.88;;;7.10;;
9773;SDS011;4926;42.670;23.316;2023-06-26T09:08:12;7.15;;;6.03;;
9773;SDS011;4926;42.670;23.316;2023-06-26T09:10:41;6.82;;;6.00;;
9773;SDS011;4926;42.670;23.316;2023-06-26T09:13:10;10.10;;;6.25;;
9773;SDS011;4926;42.670;23.316;2023-06-26T09:15:37;8.35;;;7.07;;
9773;SDS011;4926;42.670;23.316;2023-06-26T09:18:05;6.93;;;6.10;;
9773;SDS011;4926;42.670;23.316;2023-06-26T09:20:33;7.88;;;6.30;;
9773;SDS011;4926;42.670;23.316;2023-06-26T09:23:00;6.93;;;6.00;;
9773;SDS011;4926;42.670;23.316;2023-06-26T09:25:28;6.85;;;6.00;;
9773;SDS011;4926;42.670;23.316;2023-06-26T09:27:57;7.97;;;5.38;;
9773;SDS011;4926;42.670;23.316;2023-06-26T09:30:24;6.82;;;5.88;;
9773;SDS011;4926;42.670;23.316;2023-06-26T09:32:51;7.03;;;5.47;;
9773;SDS011;4926;42.670;23.316;2023-06-26T09:35:20;7.05;;;5.78;;
9773;SDS011;4926;42.670;23.316;2023-06-26T09:37:48;7.25;;;5.95;;
9773;SDS011;4926;42.670;23.316;2023-06-26T09:40:15;5.97;;;5.43;;
9773;SDS011;4926;42.670;23.316;2023-06-26T09:42:44;7.07;;;6.38;;
9773;SDS011;4926;42.670;23.316;2023-06-26T09:45:17;6.80;;;6.10;;
9773;SDS011;4926;42.670;23.316;2023-06-26T09:47:45;6.95;;;6.10;;
9773;SDS011;4926;42.670;23.316;2023-06-26T09:50:21;7.43;;;5.78;;
9773;SDS011;4926;42.670;23.316;2023-06-26T09:52:50;6.45;;;5.85;;
9773;SDS011;4926;42.670;23.316;2023-06-26T09:55:18;7.90;;;5.72;;
9773;SDS011;4926;42.670;23.316;2023-06-26T09:57:50;6.40;;;5.78;;
9773;SDS011;4926;42.670;23.316;2023-06-26T10:00:20;7.47;;;5.95;;
9773;SDS011;4926;42.670;23.316;2023-06-26T10:02:47;8.20;;;6.10;;
9773;SDS011;4926;42.670;23.316;2023-06-26T10:05:14;8.93;;;6.18;;
9773;SDS011;4926;42.670;23.316;2023-06-26T10:07:41;6.13;;;5.63;;
9773;SDS011;4926;42.670;23.316;2023-06-26T10:10:08;7.05;;;5.40;;
9773;SDS011;4926;42.670;23.316;2023-06-26T10:12:36;8.60;;;6.32;;
9773;SDS011;4926;42.670;23.316;2023-06-26T10:15:05;6.95;;;5.65;;
9773;SDS011;4926;42.670;23.316;2023-06-26T10:17:37;7.13;;;5.85;;
9773;SDS011;4926;42.670;23.316;2023-06-26T10:20:11;6.70;;;6.05;;
9773;SDS011;4926;42.670;23.316;2023-06-26T10:22:41;7.30;;;5.45;;
9773;SDS011;4926;42.670;23.316;2023-06-26T10:25:11;8.10;;;5.32;;
9773;SDS011;4926;42.670;23.316;2023-06-26T10:27:41;7.25;;;5.55;;
9773;SDS011;4926;42.670;23.316;2023-06-26T10:30:12;5.35;;;4.82;;
9773;SDS011;4926;42.670;23.316;2023-06-26T10:32:42;7.88;;;5.35;;
9773;SDS011;4926;42.670;23.316;2023-06-26T10:35:09;9.45;;;6.53;;
9773;SDS011;4926;42.670;23.316;2023-06-26T10:37:43;6.80;;;6.05;;
9773;SDS011;4926;42.670;23.316;2023-06-26T10:40:11;6.40;;;5.68;;
9773;SDS011;4926;42.670;23.316;2023-06-26T10:42:38;7.70;;;6.20;;
9773;SDS011;4926;42.670;23.316;2023-06-26T10:45:09;8.18;;;6.50;;
9773;SDS011;4926;42.670;23.316;2023-06-26T10:47:39;8.07;;;6.07;;
9773;SDS011;4926;42.670;23.316;2023-06-26T10:50:16;6.93;;;6.10;;
9773;SDS011;4926;42.670;23.316;2023-06-26T10:52:44;7.68;;;6.57;;
9773;SDS011;4926;42.670;23.316;2023-06-26T10:55:13;7.35;;;6.50;;
9773;SDS011;4926;42.670;23.316;2023-06-26T10:57:40;8.57;;;6.57;;
9773;SDS011;4926;42.670;23.316;2023-06-26T11:00:14;8.32;;;6.72;;
9773;SDS011;4926;42.670;23.316;2023-06-26T11:02:49;7.50;;;6.07;;
9773;SDS011;4926;42.670;23.316;2023-06-26T11:05:23;6.80;;;6.10;;
9773;SDS011;4926;42.670;23.316;2023-06-26T11:08:04;7.90;;;6.57;;
9773;SDS011;4926;42.670;23.316;2023-06-26T11:10:48;8.15;;;6.38;;
9773;SDS011;4926;42.670;23.316;2023-06-26T11:13:17;8.32;;;6.00;;
9773;SDS011;4926;42.670;23.316;2023-06-26T11:15:45;9.38;;;5.80;;
9773;SDS011;4926;42.670;23.316;2023-06-26T11:18:13;6.53;;;5.93;;
9773;SDS011;4926;42.670;23.316;2023-06-26T11:20:40;6.57;;;5.78;;
9773;SDS011;4926;42.670;23.316;2023-06-26T11:23:07;8.20;;;6.40;;
9773;SDS011;4926;42.670;23.316;2023-06-26T11:25:35;14.18;;;6.45;;
9773;SDS011;4926;42.670;23.316;2023-06-26T11:28:02;9.10;;;6.40;;
9773;SDS011;4926;42.670;23.316;2023-06-26T11:30:30;8.65;;;6.55;;
9773;SDS011;4926;42.670;23.316;2023-06-26T11:33:06;7.13;;;6.00;;
9773;SDS011;4926;42.670;23.316;2023-06-26T11:35:36;6.00;;;5.47;;
9773;SDS011;4926;42.670;23.316;2023-06-26T11:38:06;7.05;;;5.90;;
9773;SDS011;4926;42.670;23.316;2023-06-26T11:40:34;7.72;;;6.28;;
9773;SDS011;4926;42.670;23.316;2023-06-26T11:43:02;6.28;;;5.68;;
9773;SDS011;4926;42.670;23.316;2023-06-26T11:45:29;6.70;;;6.00;;
9773;SDS011;4926;42.670;23.316;2023-06-26T11:47:57;8.35;;;6.15;;
9773;SDS011;4926;42.670;23.316;2023-06-26T11:50:25;7.57;;;6.28;;
9773;SDS011;4926;42.670;23.316;2023-06-26T11:52:54;9.23;;;6.28;;
9773;SDS011;4926;42.670;23.316;2023-06-26T11:55:21;6.55;;;5.93;;
9773;SDS011;4926;42.670;23.316;2023-06-26T11:57:53;6.72;;;6.03;;
9773;SDS011;4926;42.670;23.316;2023-06-26T12:00:21;6.68;;;6.07;;
9773;SDS011;4926;42.670;23.316;2023-06-26T12:02:50;7.47;;;6.68;;
9773;SDS011;4926;42.670;23.316;2023-06-26T12:05:20;10.05;;;6.95;;
9773;SDS011;4926;42.670;23.316;2023-06-26T12:07:47;6.20;;;5.70;;
9773;SDS011;4926;42.670;23.316;2023-06-26T12:10:17;9.88;;;6.03;;
9773;SDS011;4926;42.670;23.316;2023-06-26T12:12:45;7.35;;;6.07;;
9773;SDS011;4926;42.670;23.316;2023-06-26T12:15:13;6.45;;;5.90;;
9773;SDS011;4926;42.670;23.316;2023-06-26T12:17:43;6.95;;;5.55;;
9773;SDS011;4926;42.670;23.316;2023-06-26T12:20:19;6.78;;;5.85;;
9773;SDS011;4926;42.670;23.316;2023-06-26T12:22:47;6.97;;;6.28;;
9773;SDS011;4926;42.670;23.316;2023-06-26T12:25:14;9.15;;;5.88;;
9773;SDS011;4926;42.670;23.316;2023-06-26T12:27:44;7.47;;;5.32;;
9773;SDS011;4926;42.670;23.316;2023-06-26T12:30:13;8.68;;;5.60;;
9773;SDS011;4926;42.670;23.316;2023-06-26T12:32:44;6.97;;;6.03;;
9773;SDS011;4926;42.670;23.316;2023-06-26T12:35:12;6.40;;;5.70;;
9773;SDS011;4926;42.670;23.316;2023-06-26T12:37:39;7.35;;;5.97;;
9773;SDS011;4926;42.670;23.316;2023-06-26T12:40:15;8.05;;;5.68;;
9773;SDS011;4926;42.670;23.316;2023-06-26T12:42:46;7.45;;;6.18;;
9773;SDS011;4926;42.670;23.316;2023-06-26T12:45:13;6.40;;;5.75;;
9773;SDS011;4926;42.670;23.316;2023-06-26T12:47:41;6.68;;;5.88;;
9773;SDS011;4926;42.670;23.316;2023-06-26T12:50:08;6.93;;;5.93;;
9773;SDS011;4926;42.670;23.316;2023-06-26T12:52:35;7.40;;;6.50;;
9773;SDS011;4926;42.670;23.316;2023-06-26T12:55:01;10.50;;;6.38;;
9773;SDS011;4926;42.670;23.316;2023-06-26T12:57:28;7.55;;;6.85;;
9773;SDS011;4926;42.670;23.316;2023-06-26T12:59:56;7.35;;;6.65;;
9773;SDS011;4926;42.670;23.316;2023-06-26T13:02:26;8.75;;;7.28;;
9773;SDS011;4926;42.670;23.316;2023-06-26T13:04:52;9.27;;;6.13;;
9773;SDS011;4926;42.670;23.316;2023-06-26T13:07:19;6.78;;;6.18;;
9773;SDS011;4926;42.670;23.316;2023-06-26T13:09:46;8.07;;;6.78;;
9773;SDS011;4926;42.670;23.316;2023-06-26T13:12:14;7.95;;;7.15;;
9773;SDS011;4926;42.670;23.316;2023-06-26T13:14:40;9.23;;;6.57;;
9773;SDS011;4926;42.670;23.316;2023-06-26T13:17:10;9.13;;;6.25;;
9773;SDS011;4926;42.670;23.316;2023-06-26T13:19:37;7.57;;;6.70;;
9773;SDS011;4926;42.670;23.316;2023-06-26T13:22:04;6.75;;;6.13;;
9773;SDS011;4926;42.670;23.316;2023-06-26T13:24:31;7.28;;;6.57;;
9773;SDS011;4926;42.670;23.316;2023-06-26T13:26:59;8.77;;;6.13;;
9773;SDS011;4926;42.670;23.316;2023-06-26T13:29:27;6.60;;;6.00;;
9773;SDS011;4926;42.670;23.316;2023-06-26T13:31:55;7.50;;;6.35;;
9773;SDS011;4926;42.670;23.316;2023-06-26T13:34:23;6.28;;;5.68;;
9773;SDS011;4926;42.670;23.316;2023-06-26T13:36:52;6.22;;;5.45;;
9773;SDS011;4926;42.670;23.316;2023-06-26T13:39:19;10.98;;;6.72;;
9773;SDS011;4926;42.670;23.316;2023-06-26T13:41:46;6.65;;;6.03;;
9773;SDS011;4926;42.670;23.316;2023-06-26T13:44:21;6.78;;;6.13;;
9773;SDS011;4926;42.670;23.316;2023-06-26T13:46:47;6.30;;;5.70;;
9773;SDS011;4926;42.670;23.316;2023-06-26T13:49:14;6.35;;;5.32;;
9773;SDS011;4926;42.670;23.316;2023-06-26T13:51:48;8.82;;;5.88;;
9773;SDS011;4926;42.670;23.316;2023-06-26T13:54:16;7.63;;;5.80;;
9773;SDS011;4926;42.670;23.316;2023-06-26T13:56:43;6.45;;;5.88;;
9773;SDS011;4926;42.670;23.316;2023-06-26T13:59:10;6.75;;;6.07;;
9773;SDS011;4926;42.670;23.316;2023-06-26T14:01:37;8.82;;;5.97;;
9773;SDS011;4926;42.670;23.316;2023-06-26T14:04:04;7.75;;;6.25;;
9773;SDS011;4926;42.670;23.316;2023-06-26T14:06:31;7.22;;;6.40;;
9773;SDS011;4926;42.670;23.316;2023-06-26T14:09:03;7.35;;;6.30;;
9773;SDS011;4926;42.670;23.316;2023-06-26T14:11:33;7.60;;;6.18;;
9773;SDS011;4926;42.670;23.316;2023-06-26T14:14:00;8.23;;;6.60;;
9773;SDS011;4926;42.670;23.316;2023-06-26T14:16:27;7.72;;;6.93;;
9773;SDS011;4926;42.670;23.316;2023-06-26T14:18:54;11.18;;;6.85;;
9773;SDS011;4926;42.670;23.316;2023-06-26T14:21:22;8.43;;;6.65;;
9773;SDS011;4926;42.670;23.316;2023-06-26T14:23:48;9.18;;;6.63;;
9773;SDS011;4926;42.670;23.316;2023-06-26T14:26:17;7.43;;;6.07;;
9773;SDS011;4926;42.670;23.316;2023-06-26T14:28:43;7.63;;;6.07;;
9773;SDS011;4926;42.670;23.316;2023-06-26T14:31:14;7.07;;;6.13;;
9773;SDS011;4926;42.670;23.316;2023-06-26T14:33:40;7.90;;;6.22;;
9773;SDS011;4926;42.670;23.316;2023-06-26T14:36:07;9.27;;;5.75;;
9773;SDS011;4926;42.670;23.316;2023-06-26T14:38:34;6.95;;;5.90;;
9773;SDS011;4926;42.670;23.316;2023-06-26T14:41:04;7.38;;;6.68;;
9773;SDS011;4926;42.670;23.316;2023-06-26T14:43:36;7.32;;;6.50;;
9773;SDS011;4926;42.670;23.316;2023-06-26T14:46:02;7.38;;;6.00;;
9773;SDS011;4926;42.670;23.316;2023-06-26T14:48:29;10.27;;;6.80;;
9773;SDS011;4926;42.670;23.316;2023-06-26T14:50:56;9.65;;;7.07;;
9773;SDS011;4926;42.670;23.316;2023-06-26T14:53:25;8.23;;;6.93;;
9773;SDS011;4926;42.670;23.316;2023-06-26T14:55:52;7.28;;;6.68;;
9773;SDS011;4926;42.670;23.316;2023-06-26T14:58:21;8.35;;;6.80;;